Time;durP1;ratioP1;P1;durP2;ratioP2;P2;SDS_P1;SDS_P2;PMS_P1;PMS_P2;Temp;Humidity;BMP_temperature;BMP_pressure;BME280_temperature;BME280_humidity;BME280_pressure;Samples;Min_cycle;Max_cycle;Signal;HPM_P1;HPM_P2
2021/09/26 00:01:18;;;;;;;9.35;7.07;;;;;;;11.13;69.22;94151.22;5012895;28;20033;-50
2021/09/26 00:03:43;;;;;;;10.55;7.13;;;;;;;10.81;69.65;94158.19;5012907;28;20021;-48
2021/09/26 00:06:08;;;;;;;10.18;6.97;;;;;;;10.85;69.29;94150.34;5012786;28;20025;-48
2021/09/26 00:08:34;;;;;;;10.88;8.40;;;;;;;10.93;69.28;94154.69;5012806;28;20022;-49
2021/09/26 00:11:05;;;;;;;10.23;7.50;;;;;;;10.94;69.05;94142.34;5012452;28;20541;-49
2021/09/26 00:13:38;;;;;;;9.45;7.00;;;;;;;10.98;69.18;94150.34;5012714;28;20686;-49
2021/09/26 00:16:04;;;;;;;10.80;6.47;;;;;;;10.92;68.73;94144.16;5012388;28;20492;-49
2021/09/26 00:18:30;;;;;;;11.43;6.30;;;;;;;10.88;68.59;94130.69;5012241;28;20026;-48
2021/09/26 00:20:56;;;;;;;9.15;5.95;;;;;;;10.87;68.29;94129.19;5012581;28;20037;-47
2021/09/26 00:23:21;;;;;;;7.72;5.93;;;;;;;11.01;68.85;94146.47;5011829;28;20532;-48
2021/09/26 00:25:47;;;;;;;6.60;5.72;;;;;;;10.63;69.01;94146.03;5012515;28;20040;-50
2021/09/26 00:28:14;;;;;;;8.27;5.85;;;;;;;9.95;70.10;94081.56;5012327;28;20080;-52
2021/09/26 00:30:39;;;;;;;9.07;6.00;;;;;;;10.64;69.45;94142.72;5012340;28;20392;-50
2021/09/26 00:33:05;;;;;;;8.82;6.60;;;;;;;10.78;69.06;94148.22;5011999;28;20032;-50
2021/09/26 00:35:30;;;;;;;13.80;6.30;;;;;;;10.79;69.25;94144.94;5011880;28;20046;-49
2021/09/26 00:37:55;;;;;;;8.85;6.72;;;;;;;10.78;69.14;94151.75;5011745;28;20033;-50
2021/09/26 00:40:21;;;;;;;8.88;6.75;;;;;;;10.70;69.11;94142.59;5012156;28;20030;-49
2021/09/26 00:42:46;;;;;;;7.43;5.32;;;;;;;10.71;68.93;94137.81;5011858;28;20014;-53
2021/09/26 00:45:12;;;;;;;7.13;5.63;;;;;;;10.76;69.01;94137.72;5011503;28;20042;-50
2021/09/26 00:47:38;;;;;;;7.03;5.05;;;;;;;10.76;68.60;94128.69;5011971;28;20034;-49
2021/09/26 00:50:05;;;;;;;9.75;5.70;;;;;;;10.72;68.99;94126.25;5011786;28;20024;-50
2021/09/26 00:52:30;;;;;;;9.57;5.85;;;;;;;10.63;68.74;94132.22;5011832;28;20109;-55
2021/09/26 00:54:56;;;;;;;11.27;5.57;;;;;;;10.40;69.06;94133.91;5011918;28;20414;-55
2021/09/26 00:57:22;;;;;;;9.48;6.43;;;;;;;10.33;68.32;94104.94;5011571;28;20531;-55
2021/09/26 00:59:47;;;;;;;8.00;6.45;;;;;;;10.49;68.99;94125.19;5011627;28;20022;-55
2021/09/26 01:02:13;;;;;;;10.55;7.22;;;;;;;10.50;68.99;94130.19;5011713;28;20034;-55
2021/09/26 01:04:38;;;;;;;8.50;6.65;;;;;;;10.42;68.92;94123.06;5011488;28;20022;-50
2021/09/26 01:07:15;;;;;;;9.00;5.88;;;;;;;10.38;69.29;94137.22;5011675;28;20032;-51
2021/09/26 01:09:50;;;;;;;9.23;6.57;;;;;;;10.36;69.15;94125.97;4994234;28;20079;-56
2021/09/26 01:12:52;;;;;;;7.90;4.93;;;;;;;10.42;69.12;94131.34;4994009;28;20034;-53
2021/09/26 01:15:42;;;;;;;6.93;5.80;;;;;;;10.38;69.39;94139.22;5010481;28;20529;-55
2021/09/26 01:18:32;;;;;;;9.57;5.80;;;;;;;10.37;69.05;94127.44;5011437;28;20443;-54
2021/09/26 01:21:14;;;;;;;7.75;5.47;;;;;;;10.32;69.04;94120.00;4993584;28;20034;-54
2021/09/26 01:24:21;;;;;;;8.57;5.22;;;;;;;10.31;69.54;94121.28;5010795;28;20060;-52
2021/09/26 01:26:59;;;;;;;8.30;5.57;;;;;;;10.19;68.79;94122.78;4990794;28;20034;-50
2021/09/26 01:29:38;;;;;;;10.52;5.82;;;;;;;10.14;68.80;94125.63;4993827;28;20022;-51
2021/09/26 01:32:07;;;;;;;8.88;5.78;;;;;;;10.08;69.13;94109.16;5011094;28;20065;-50
2021/09/26 01:34:39;;;;;;;10.43;5.72;;;;;;;10.07;69.00;94120.72;4993475;28;20116;-50
2021/09/26 01:37:25;;;;;;;9.13;5.70;;;;;;;10.04;68.96;94121.78;5010854;28;20025;-51
2021/09/26 01:40:03;;;;;;;9.10;6.57;;;;;;;10.04;69.24;94122.53;5011233;28;20025;-52
2021/09/26 01:42:48;;;;;;;11.88;6.28;;;;;;;9.97;69.97;94120.38;5010684;28;20076;-51
2021/09/26 01:45:29;;;;;;;7.97;5.78;;;;;;;9.97;69.39;94125.91;4993138;28;20054;-54
2021/09/26 01:48:01;;;;;;;8.30;5.72;;;;;;;9.93;68.83;94128.97;5009915;28;20057;-51
2021/09/26 01:50:27;;;;;;;10.45;4.65;;;;;;;9.93;68.80;94133.75;4992357;28;20033;-50
2021/09/26 01:52:54;;;;;;;10.40;4.68;;;;;;;9.94;68.97;94135.22;4993406;28;20022;-50
2021/09/26 01:55:23;;;;;;;6.00;4.38;;;;;;;9.92;68.72;94132.25;4993076;28;20569;-51
2021/09/26 01:57:48;;;;;;;7.80;4.32;;;;;;;9.77;69.40;94115.47;5010957;28;20117;-51
2021/09/26 02:00:14;;;;;;;8.07;5.00;;;;;;;9.70;69.54;94105.06;4992887;28;20108;-49
2021/09/26 02:02:42;;;;;;;9.32;5.53;;;;;;;9.86;69.50;94129.59;5010826;28;20087;-49
2021/09/26 02:05:08;;;;;;;10.25;5.47;;;;;;;9.84;69.62;94125.88;5010820;28;20041;-51
2021/09/26 02:07:38;;;;;;;8.05;4.85;;;;;;;9.84;69.51;94126.63;5010750;28;20095;-49
2021/09/26 02:10:05;;;;;;;9.85;4.72;;;;;;;9.79;68.92;94121.19;4993221;28;20061;-51
2021/09/26 02:12:32;;;;;;;6.45;4.55;;;;;;;9.77;68.74;94132.75;5010347;28;20590;-51
2021/09/26 02:14:58;;;;;;;5.55;4.55;;;;;;;9.72;68.98;94128.06;5010810;28;20603;-57
2021/09/26 02:17:27;;;;;;;5.93;4.93;;;;;;;9.65;69.90;94131.47;5010653;28;20388;-56
2021/09/26 02:19:58;;;;;;;7.88;6.03;;;;;;;9.51;70.28;94132.69;4993447;28;20105;-56
2021/09/26 02:22:23;;;;;;;8.75;5.90;;;;;;;9.51;70.33;94131.94;4993685;28;20573;-54
2021/09/26 02:24:49;;;;;;;9.90;7.07;;;;;;;9.51;70.74;94124.41;5010287;28;20064;-53
2021/09/26 02:27:14;;;;;;;6.95;5.88;;;;;;;9.47;70.80;94123.22;4992770;28;20029;-55
2021/09/26 02:29:40;;;;;;;9.77;6.50;;;;;;;9.56;70.49;94122.84;5010252;28;20030;-55
2021/09/26 02:32:05;;;;;;;8.38;6.05;;;;;;;9.50;70.50;94131.22;5010014;28;20034;-53
2021/09/26 02:34:31;;;;;;;7.88;6.03;;;;;;;9.46;70.58;94133.53;5009409;28;20088;-53
2021/09/26 02:36:57;;;;;;;8.57;4.78;;;;;;;9.40;70.16;94129.38;5009070;28;20113;-52
2021/09/26 02:39:23;;;;;;;6.45;4.78;;;;;;;9.42;69.67;94138.59;5010036;28;20030;-55
2021/09/26 02:42:11;;;;;;;7.85;5.45;;;;;;;9.40;69.48;94141.13;5010458;28;20024;-50
2021/09/26 02:44:37;;;;;;;5.63;4.30;;;;;;;9.48;69.32;94130.25;4992734;28;20442;-50
2021/09/26 02:47:08;;;;;;;5.30;4.65;;;;;;;9.34;69.59;94140.47;5010397;28;20121;-52
2021/09/26 02:49:34;;;;;;;5.50;4.60;;;;;;;9.25;69.60;94140.13;4992675;28;20022;-51
2021/09/26 02:52:00;;;;;;;5.97;4.30;;;;;;;9.29;69.70;94143.31;4992848;28;20545;-55
2021/09/26 02:54:26;;;;;;;10.38;4.30;;;;;;;9.34;69.39;94137.72;4992811;28;20073;-53
2021/09/26 02:56:51;;;;;;;6.15;4.32;;;;;;;9.38;69.54;94131.88;4992604;28;20026;-53
2021/09/26 02:59:20;;;;;;;7.65;4.97;;;;;;;9.32;69.51;94131.97;5010056;28;20096;-51
2021/09/26 03:01:52;;;;;;;9.80;6.53;;;;;;;9.40;69.26;94141.13;5012960;28;20558;-49
2021/09/26 03:04:18;;;;;;;14.75;8.23;;;;;;;9.18;69.44;94139.44;5013961;28;20018;-48
2021/09/26 03:06:44;;;;;;;15.43;9.35;;;;;;;8.97;70.75;94137.75;5013972;28;20099;-48
2021/09/26 03:09:09;;;;;;;15.18;9.40;;;;;;;9.17;70.02;94142.72;5014031;28;20104;-49
2021/09/26 03:11:35;;;;;;;13.32;9.38;;;;;;;9.13;69.90;94137.53;5013400;28;20037;-48
2021/09/26 03:14:00;;;;;;;16.48;10.07;;;;;;;9.09;69.92;94139.09;5013854;28;20033;-50
2021/09/26 03:16:25;;;;;;;14.70;9.45;;;;;;;8.92;71.14;94144.81;5013508;28;20022;-48
2021/09/26 03:18:51;;;;;;;12.35;8.15;;;;;;;9.00;70.68;94142.22;5013439;28;20072;-49
2021/09/26 03:21:16;;;;;;;13.23;7.20;;;;;;;8.96;69.94;94142.53;5013543;28;20081;-47
2021/09/26 03:23:42;;;;;;;6.47;5.03;;;;;;;8.91;69.95;94150.84;5013127;28;20026;-48
2021/09/26 03:26:07;;;;;;;7.28;4.95;;;;;;;8.97;70.13;94143.25;5013124;28;20029;-47
2021/09/26 03:28:33;;;;;;;6.03;4.80;;;;;;;8.99;69.54;94135.97;5013562;28;20033;-47
2021/09/26 03:30:58;;;;;;;6.60;4.50;;;;;;;8.90;69.62;94122.56;5013202;28;20550;-52
2021/09/26 03:33:24;;;;;;;6.07;4.57;;;;;;;8.99;69.12;94138.72;5013476;28;20030;-48
2021/09/26 03:35:49;;;;;;;6.38;4.70;;;;;;;8.94;69.93;94136.06;4995933;28;20427;-47
2021/09/26 03:38:15;;;;;;;8.90;6.25;;;;;;;8.81;69.65;94142.22;4993816;28;20081;-49
2021/09/26 03:40:40;;;;;;;9.73;6.22;;;;;;;8.67;70.78;94140.66;4993554;28;20401;-48
2021/09/26 03:43:06;;;;;;;13.15;8.00;;;;;;;8.69;70.80;94140.13;4993722;28;20034;-48
2021/09/26 03:45:31;;;;;;;11.85;7.72;;;;;;;8.54;71.41;94146.06;4993331;28;20043;-50
2021/09/26 03:47:57;;;;;;;12.95;8.20;;;;;;;8.66;71.13;94141.19;4993384;28;20030;-49
2021/09/26 03:50:22;;;;;;;10.05;7.07;;;;;;;8.68;71.13;94142.16;4993264;28;20022;-50
2021/09/26 03:52:48;;;;;;;10.75;7.15;;;;;;;8.64;71.36;94141.66;4993302;28;20025;-49
2021/09/26 03:55:14;;;;;;;13.18;8.13;;;;;;;8.65;71.01;94143.19;4993492;28;20037;-50
2021/09/26 03:57:41;;;;;;;11.90;7.55;;;;;;;8.59;71.38;94145.25;4992066;28;20559;-49
2021/09/26 04:00:08;;;;;;;11.57;7.85;;;;;;;8.64;71.39;94141.66;5008049;28;20507;-50
2021/09/26 04:02:34;;;;;;;9.88;6.65;;;;;;;8.55;70.85;94125.53;5012497;28;20018;-50
2021/09/26 04:04:59;;;;;;;12.05;7.85;;;;;;;8.51;70.89;94122.31;5012952;28;20033;-55
2021/09/26 04:07:24;;;;;;;12.05;7.18;;;;;;;8.44;70.45;94100.16;5012518;28;20037;-54
2021/09/26 04:09:50;;;;;;;17.52;7.25;;;;;;;8.73;70.36;94137.81;5012497;28;20025;-53
2021/09/26 04:12:16;;;;;;;8.60;6.38;;;;;;;8.66;69.95;94133.66;5011759;28;20034;-50
2021/09/26 04:14:42;;;;;;;8.73;5.25;;;;;;;8.64;69.73;94146.47;5012557;28;20025;-50
2021/09/26 04:17:07;;;;;;;9.95;5.82;;;;;;;8.59;69.62;94147.25;4994879;28;20105;-51
2021/09/26 04:19:33;;;;;;;6.97;5.10;;;;;;;8.60;69.91;94151.50;5012245;28;20021;-53
2021/09/26 04:21:59;;;;;;;8.77;6.38;;;;;;;8.54;69.07;94154.31;5012272;28;20025;-49
2021/09/26 04:24:25;;;;;;;13.05;7.22;;;;;;;8.47;70.06;94149.38;5011756;28;20028;-50
2021/09/26 04:26:50;;;;;;;10.68;7.43;;;;;;;8.24;70.21;94115.88;5012143;28;20108;-49
2021/09/26 04:29:16;;;;;;;10.43;7.72;;;;;;;8.54;70.42;94153.56;5012171;28;20109;-50
2021/09/26 04:31:41;;;;;;;9.32;6.72;;;;;;;8.51;70.58;94162.88;5011863;28;20030;-50
2021/09/26 04:34:07;;;;;;;13.88;8.73;;;;;;;8.52;70.39;94167.09;5011978;28;20089;-50
2021/09/26 04:36:32;;;;;;;15.85;10.23;;;;;;;8.51;70.43;94165.63;5011978;28;20128;-52
2021/09/26 04:38:58;;;;;;;14.45;9.70;;;;;;;8.50;70.58;94164.13;5011968;28;20061;-50
2021/09/26 04:41:23;;;;;;;14.18;9.85;;;;;;;8.51;70.61;94160.84;5012223;28;20032;-51
2021/09/26 04:43:49;;;;;;;17.15;11.00;;;;;;;8.48;70.38;94152.88;5011716;28;20053;-53
2021/09/26 04:46:14;;;;;;;12.43;9.15;;;;;;;8.52;70.68;94162.34;5012064;28;20022;-50
2021/09/26 04:48:40;;;;;;;25.85;10.23;;;;;;;8.56;70.59;94159.28;5011716;28;20021;-49
2021/09/26 04:51:05;;;;;;;15.38;10.35;;;;;;;8.55;70.63;94155.81;5011931;28;20033;-54
2021/09/26 04:53:31;;;;;;;16.13;10.43;;;;;;;8.35;71.26;94145.28;5011691;28;20431;-50
2021/09/26 04:55:56;;;;;;;21.23;12.07;;;;;;;8.55;70.05;94163.31;5011889;28;20032;-47
2021/09/26 04:58:22;;;;;;;20.02;12.75;;;;;;;8.50;70.77;94164.13;5011460;28;20034;-48
2021/09/26 05:00:47;;;;;;;31.75;14.75;;;;;;;8.51;70.63;94171.84;5011838;28;20061;-49
2021/09/26 05:03:13;;;;;;;23.67;15.27;;;;;;;8.56;70.81;94171.06;5011507;28;20038;-49
2021/09/26 05:05:40;;;;;;;32.95;20.80;;;;;;;8.61;70.06;94175.00;5011512;28;20120;-49
2021/09/26 05:08:06;;;;;;;17.88;11.52;;;;;;;8.66;70.41;94174.22;5011620;28;20033;-50
2021/09/26 05:10:31;;;;;;;20.25;11.63;;;;;;;8.58;71.30;94174.03;5011699;28;20018;-52
2021/09/26 05:12:58;;;;;;;17.60;11.05;;;;;;;8.57;71.84;94178.06;5011621;28;20491;-49
2021/09/26 05:15:23;;;;;;;16.50;11.15;;;;;;;8.61;72.36;94169.50;5011512;28;20084;-49
2021/09/26 05:17:49;;;;;;;18.05;13.35;;;;;;;8.82;72.33;94179.50;5011310;28;20416;-49
2021/09/26 05:20:14;;;;;;;19.73;15.30;;;;;;;8.80;72.04;94151.75;5011431;28;20025;-49
2021/09/26 05:22:40;;;;;;;18.73;14.45;;;;;;;9.05;72.35;94180.69;5010903;28;20020;-50
2021/09/26 05:25:06;;;;;;;38.33;14.02;;;;;;;9.04;72.24;94162.69;5011381;28;20080;-50
2021/09/26 05:27:32;;;;;;;20.75;14.52;;;;;;;9.01;72.75;94157.47;5010874;28;20025;-56
2021/09/26 05:29:57;;;;;;;19.83;12.23;;;;;;;8.95;73.43;94173.31;5011391;28;20018;-51
2021/09/26 05:32:23;;;;;;;21.05;12.60;;;;;;;8.86;74.63;94160.66;5011161;28;20045;-51
2021/09/26 05:34:48;;;;;;;17.05;13.85;;;;;;;8.75;76.56;94154.56;5011285;28;20498;-49
2021/09/26 05:37:14;;;;;;;20.20;11.32;;;;;;;8.80;77.39;94151.75;5011016;28;20423;-52
2021/09/26 05:39:39;;;;;;;18.10;12.30;;;;;;;8.85;76.51;94172.97;5010896;28;20112;-49
2021/09/26 05:42:06;;;;;;;13.55;9.88;;;;;;;8.93;76.54;94164.84;5010792;28;20113;-53
2021/09/26 05:44:36;;;;;;;16.30;10.73;;;;;;;9.02;75.46;94156.97;5010802;28;20045;-54
2021/09/26 05:47:01;;;;;;;;;;;;;;;9.29;75.49;94171.59;5011672;28;20025;-54
2021/09/26 05:49:26;;;;;;;19.98;11.05;;;;;;;9.44;75.18;94162.88;5010650;28;20386;-51
2021/09/26 05:51:52;;;;;;;19.67;10.30;;;;;;;9.30;74.59;94111.72;5010627;28;20108;-53
2021/09/26 05:54:19;;;;;;;25.88;10.98;;;;;;;9.42;74.56;94121.31;5010725;28;20022;-54
2021/09/26 05:56:45;;;;;;;52.70;12.40;;;;;;;9.88;74.94;94164.91;5010565;28;20025;-54
2021/09/26 05:59:10;;;;;;;61.63;11.88;;;;;;;10.10;74.60;94163.78;5010674;28;20021;-51
2021/09/26 06:01:36;;;;;;;22.38;8.73;;;;;;;10.31;74.76;94159.91;5010571;28;20026;-49
2021/09/26 06:04:01;;;;;;;27.85;12.82;;;;;;;10.56;74.13;94175.03;5010837;28;20022;-47
2021/09/26 06:06:27;;;;;;;39.90;9.68;;;;;;;10.88;73.38;94165.84;5010420;28;20511;-49
2021/09/26 06:08:53;;;;;;;16.80;7.65;;;;;;;11.25;72.28;94163.56;5010480;28;20088;-48
2021/09/26 06:11:18;;;;;;;19.02;9.18;;;;;;;11.85;71.67;94163.44;5010793;28;20029;-50
2021/09/26 06:13:43;;;;;;;48.25;19.08;;;;;;;12.63;70.30;94164.94;5010382;28;20068;-51
2021/09/26 06:16:09;;;;;;;36.88;15.88;;;;;;;13.23;67.00;94145.13;5010665;28;20033;-53
2021/09/26 06:18:34;;;;;;;17.65;8.63;;;;;;;13.90;66.56;94160.47;5010338;28;20022;-55
2021/09/26 06:21:00;;;;;;;10.02;7.65;;;;;;;14.24;65.94;94154.53;5010355;28;20029;-50
2021/09/26 06:23:25;;;;;;;15.05;8.27;;;;;;;14.52;64.77;94150.84;5010031;28;20072;-52
2021/09/26 06:25:51;;;;;;;9.65;6.63;;;;;;;14.92;63.63;94144.09;5010061;28;20026;-49
2021/09/26 06:28:16;;;;;;;26.77;8.75;;;;;;;15.53;62.30;94149.44;5010259;28;20022;-51
2021/09/26 06:30:42;;;;;;;43.75;8.85;;;;;;;15.96;61.01;94148.28;5010579;28;20041;-50
2021/09/26 06:33:07;;;;;;;9.60;7.85;;;;;;;16.94;58.36;94142.59;5010445;28;20022;-51
2021/09/26 06:35:33;;;;;;;8.70;6.47;;;;;;;17.29;56.40;94102.19;5011166;28;20029;-51
2021/09/26 06:38:00;;;;;;;12.13;6.25;;;;;;;18.01;55.25;94146.28;5014210;28;20030;-54
2021/09/26 06:40:25;;;;;;;6.55;5.22;;;;;;;18.50;54.17;94136.78;5014688;28;20026;-57
2021/09/26 06:42:51;;;;;;;9.23;6.60;;;;;;;18.67;53.36;94131.09;5014262;28;20512;-55
2021/09/26 06:45:16;;;;;;;7.60;5.50;;;;;;;18.89;52.86;94129.19;5013812;28;20046;-54
2021/09/26 06:47:42;;;;;;;7.18;5.10;;;;;;;19.33;51.85;94129.69;5014145;28;20473;-56
2021/09/26 06:50:09;;;;;;;5.18;3.42;;;;;;;19.93;49.65;94129.72;5014260;28;20022;-53
2021/09/26 06:52:34;;;;;;;4.95;4.10;;;;;;;21.21;47.05;94129.41;5014109;28;20025;-51
2021/09/26 06:55:00;;;;;;;3.97;3.60;;;;;;;22.54;43.42;94130.13;5013997;28;20541;-54
2021/09/26 06:57:25;;;;;;;4.53;3.65;;;;;;;24.59;39.99;94138.38;5013782;28;20080;-56
2021/09/26 06:59:51;;;;;;;3.40;3.10;;;;;;;26.48;35.43;94132.22;5014159;28;20026;-53
2021/09/26 07:02:23;;;;;;;7.85;3.30;;;;;;;27.98;33.26;94140.88;5012919;28;20545;-50
2021/09/26 07:04:53;;;;;;;4.90;2.90;;;;;;;29.33;30.29;94133.94;5013651;28;20108;-51
2021/09/26 07:07:22;;;;;;;4.07;3.67;;;;;;;30.56;28.57;94138.72;5013409;28;20029;-48
2021/09/26 07:09:49;;;;;;;;;;;;;;;31.41;26.71;94136.97;5013624;28;20032;-49
2021/09/26 07:12:15;;;;;;;4.90;3.67;;;;;;;31.72;26.01;94140.63;5013294;28;19913;-53
2021/09/26 07:14:41;;;;;;;22.13;4.57;;;;;;;32.22;25.38;94147.66;5013515;28;20392;-53
2021/09/26 07:17:06;;;;;;;5.78;3.60;;;;;;;32.72;24.54;94143.13;5013551;28;20033;-59
2021/09/26 07:19:32;;;;;;;5.40;4.20;;;;;;;33.12;23.94;94149.00;5013350;28;20576;-54
2021/09/26 07:21:57;;;;;;;6.15;4.20;;;;;;;33.61;22.70;94130.66;5013347;28;20018;-53
2021/09/26 07:24:23;;;;;;;24.27;5.40;;;;;;;33.94;22.92;94140.56;5013295;28;20025;-54
2021/09/26 07:26:48;;;;;;;3.40;3.10;;;;;;;34.31;22.02;94105.34;5013650;28;20026;-55
2021/09/26 07:29:14;;;;;;;7.60;2.95;;;;;;;35.00;21.22;94139.38;5013606;28;20018;-51
2021/09/26 07:31:40;;;;;;;5.78;3.28;;;;;;;35.56;20.78;94141.53;5013412;28;20522;-56
2021/09/26 07:34:05;;;;;;;22.63;3.72;;;;;;;35.64;20.43;94144.47;5012968;28;20513;-50
2021/09/26 07:36:31;;;;;;;4.40;2.50;;;;;;;36.15;20.18;94146.44;5013094;28;20022;-54
2021/09/26 07:38:57;;;;;;;4.20;3.55;;;;;;;36.74;20.34;94141.16;5013332;28;20101;-49
2021/09/26 07:41:22;;;;;;;3.55;2.90;;;;;;;36.47;19.43;94132.34;5013355;28;20045;-50
2021/09/26 07:43:48;;;;;;;38.78;5.65;;;;;;;36.56;18.96;94121.63;5013088;28;20056;-49
2021/09/26 07:46:14;;;;;;;15.02;3.58;;;;;;;37.31;19.03;94137.19;5012910;28;20026;-50
2021/09/26 07:48:40;;;;;;;6.78;2.75;;;;;;;37.70;17.78;94129.41;5011970;28;20038;-48
2021/09/26 07:51:05;;;;;;;13.82;3.17;;;;;;;37.69;18.89;94154.63;5012839;28;20037;-50
2021/09/26 07:53:32;;;;;;;4.95;2.72;;;;;;;38.31;17.97;94116.56;5012771;28;20022;-50
2021/09/26 07:55:59;;;;;;;5.18;2.92;;;;;;;38.66;17.42;94146.81;5011796;28;20033;-50
2021/09/26 07:58:26;;;;;;;7.35;2.55;;;;;;;39.60;16.77;94144.47;5012747;28;20038;-49
2021/09/26 08:00:52;;;;;;;37.53;4.15;;;;;;;39.90;16.08;94132.75;5013056;28;20109;-51
2021/09/26 08:03:17;;;;;;;13.43;3.08;;;;;;;39.62;16.30;94135.78;5012859;28;20471;-48
2021/09/26 08:05:43;;;;;;;2.78;2.35;;;;;;;39.75;16.07;94137.88;5012014;28;20037;-48
2021/09/26 08:08:09;;;;;;;2.25;2.08;;;;;;;40.20;15.88;94137.66;5011456;28;20026;-50
2021/09/26 08:10:34;;;;;;;28.13;3.70;;;;;;;40.50;14.97;94132.34;4993665;28;20073;-48
2021/09/26 08:13:00;;;;;;;4.53;2.15;;;;;;;40.91;15.04;94140.69;5011060;28;20017;-47
2021/09/26 08:15:25;;;;;;;2.83;2.15;;;;;;;40.97;14.96;94140.63;5011419;28;20022;-51
2021/09/26 08:17:50;;;;;;;5.75;2.10;;;;;;;41.12;14.29;94133.94;5012208;28;20053;-48
2021/09/26 08:20:17;;;;;;;31.75;3.40;;;;;;;40.90;15.10;94145.75;5011781;28;20037;-48
2021/09/26 08:22:43;;;;;;;2.22;2.00;;;;;;;40.94;15.10;94131.25;5011462;28;20591;-49
2021/09/26 08:25:10;;;;;;;2.88;2.10;;;;;;;40.63;15.16;94135.88;5012420;28;20030;-48
2021/09/26 08:27:37;;;;;;;5.88;2.47;;;;;;;40.78;14.55;94126.28;5012306;28;20095;-51
2021/09/26 08:30:07;;;;;;;2.17;1.98;;;;;;;41.04;14.99;94136.22;5011611;28;20026;-52
2021/09/26 08:32:33;;;;;;;6.30;1.92;;;;;;;41.12;15.41;94122.38;5011966;28;20075;-53
2021/09/26 08:34:58;;;;;;;2.63;2.00;;;;;;;40.93;15.33;94123.28;5012320;28;20041;-53
2021/09/26 08:37:24;;;;;;;5.25;2.58;;;;;;;41.06;14.87;94113.75;5011672;28;20026;-52
2021/09/26 08:39:49;;;;;;;4.05;2.33;;;;;;;41.42;14.70;94122.03;5011973;28;20053;-50
2021/09/26 08:42:16;;;;;;;146.10;11.50;;;;;;;42.24;13.72;94126.00;5011697;28;20034;-49
2021/09/26 08:44:41;;;;;;;3.03;2.13;;;;;;;42.44;13.68;94116.25;5010281;28;20623;-50
2021/09/26 08:47:07;;;;;;;2.40;2.20;;;;;;;42.18;14.10;94114.50;5010923;28;20030;-52
2021/09/26 08:49:33;;;;;;;36.30;4.72;;;;;;;42.32;13.97;94110.66;5011753;28;20029;-50
2021/09/26 08:51:59;;;;;;;2.53;2.33;;;;;;;42.45;13.01;94114.78;5011348;28;20032;-51
2021/09/26 08:54:24;;;;;;;7.72;2.22;;;;;;;42.58;13.39;94113.13;5011505;28;20030;-50
2021/09/26 08:56:50;;;;;;;73.40;5.72;;;;;;;42.89;13.92;94107.53;5011491;28;20427;-50
2021/09/26 08:59:15;;;;;;;4.88;2.20;;;;;;;42.96;13.46;94112.50;5011166;28;20025;-52
2021/09/26 09:01:41;;;;;;;3.30;2.08;;;;;;;43.14;13.30;94119.44;5011678;28;20033;-50
2021/09/26 09:04:07;;;;;;;51.22;5.40;;;;;;;43.33;13.10;94123.44;5011491;28;20655;-49
2021/09/26 09:06:47;;;;;;;28.25;3.17;;;;;;;43.31;13.62;94115.47;5011546;28;20033;-53
2021/09/26 09:09:19;;;;;;;4.93;2.00;;;;;;;43.15;12.86;94112.84;5011476;28;20172;-49
2021/09/26 09:11:57;;;;;;;9.82;2.00;;;;;;;43.10;13.47;94102.06;5011529;28;20029;-49
2021/09/26 09:14:23;;;;;;;11.82;2.75;;;;;;;43.37;12.87;94097.91;5011230;28;20037;-54
2021/09/26 09:16:53;;;;;;;2.00;1.80;;;;;;;43.40;13.29;94108.03;5010477;28;20084;-49
2021/09/26 09:19:23;;;;;;;2.03;1.92;;;;;;;42.34;13.47;94107.00;5009423;28;20034;-49
2021/09/26 09:22:06;;;;;;;10.10;2.10;;;;;;;42.46;14.09;94116.25;5008787;28;20034;-51
2021/09/26 09:24:40;;;;;;;4.50;2.13;;;;;;;42.82;13.96;94115.63;4990928;28;20543;-50
2021/09/26 09:27:06;;;;;;;3.92;1.70;;;;;;;42.98;13.16;94109.56;5009171;28;20490;-50
2021/09/26 09:29:36;;;;;;;2.33;1.75;;;;;;;43.45;13.50;94111.56;5009166;28;20064;-51
2021/09/26 09:32:02;;;;;;;2.28;2.03;;;;;;;42.66;13.36;94104.31;5009870;28;20104;-51
2021/09/26 09:34:29;;;;;;;2.20;2.00;;;;;;;42.49;13.51;94091.53;5010845;28;20510;-52
2021/09/26 09:37:14;;;;;;;2.00;1.90;;;;;;;43.09;13.33;94103.53;5011249;28;20097;-52
2021/09/26 09:39:42;;;;;;;2.13;1.90;;;;;;;42.95;13.23;94073.28;5010852;28;20112;-49
2021/09/26 09:42:17;;;;;;;;;;;;;;;42.84;12.89;94101.06;5011593;28;20104;-51
2021/09/26 09:44:44;;;;;;;1.67;1.58;;;;;;;42.87;13.36;94085.06;5010711;28;19918;-50
2021/09/26 09:47:10;;;;;;;2.60;2.00;;;;;;;42.61;13.21;94056.47;5010869;28;20437;-50
2021/09/26 09:49:35;;;;;;;4.45;1.83;;;;;;;43.19;13.15;94092.41;5011033;28;20033;-53
2021/09/26 09:52:02;;;;;;;4.55;2.20;;;;;;;43.26;12.87;94093.78;5010992;28;20536;-51
2021/09/26 09:54:35;;;;;;;3.47;1.92;;;;;;;42.86;13.25;94092.31;5010971;28;20030;-50
2021/09/26 09:57:19;;;;;;;3.30;2.08;;;;;;;42.21;13.66;94089.75;5011002;28;20171;-53
2021/09/26 09:59:46;;;;;;;14.23;2.95;;;;;;;42.07;13.97;94089.28;4998614;28;20027;-50
2021/09/26 10:02:14;;;;;;;2.83;2.03;;;;;;;42.07;13.33;94089.28;4991225;28;20109;-50
2021/09/26 10:04:44;;;;;;;3.67;2.67;;;;;;;42.35;13.65;94085.19;4990922;28;20092;-49
2021/09/26 10:07:21;;;;;;;12.70;2.30;;;;;;;42.38;13.13;94077.91;4990953;28;20109;-49
2021/09/26 10:09:47;;;;;;;2.87;2.07;;;;;;;42.52;13.57;94066.06;5008907;28;20067;-50
2021/09/26 10:12:21;;;;;;;6.43;2.17;;;;;;;41.60;14.15;94079.75;5010368;28;20029;-53
2021/09/26 10:14:50;;;;;;;125.55;9.73;;;;;;;42.03;13.66;94072.63;5010408;28;20491;-52
2021/09/26 10:17:15;;;;;;;3.17;1.90;;;;;;;42.11;13.66;94078.31;5010649;28;20033;-50
2021/09/26 10:19:41;;;;;;;3.13;1.60;;;;;;;42.10;13.51;94065.31;5010665;28;20569;-48
2021/09/26 10:22:07;;;;;;;2.72;2.00;;;;;;;41.54;13.60;94057.38;5010325;28;20550;-49
2021/09/26 10:24:34;;;;;;;2.03;1.77;;;;;;;41.75;13.87;94072.34;5010316;28;20052;-50
2021/09/26 10:27:04;;;;;;;4.07;2.23;;;;;;;41.74;13.77;94065.09;5010640;28;20030;-49
2021/09/26 10:29:31;;;;;;;14.93;2.55;;;;;;;41.48;14.26;94037.16;5010491;28;20456;-49
2021/09/26 10:31:59;;;;;;;2.10;1.88;;;;;;;41.80;13.81;94062.81;5010570;28;20087;-51
2021/09/26 10:34:25;;;;;;;;;;;;;;;40.73;15.16;94058.31;5010808;28;20037;-51
2021/09/26 10:36:50;;;;;;;2.90;2.00;;;;;;;40.64;14.39;94056.22;5009459;28;20272;-49
2021/09/26 10:39:16;;;;;;;2.15;1.95;;;;;;;40.22;14.32;94053.72;4992618;28;20468;-49
2021/09/26 10:42:07;;;;;;;4.00;2.13;;;;;;;38.31;17.31;94056.00;5010458;28;20119;-50
2021/09/26 10:44:36;;;;;;;2.83;2.47;;;;;;;39.10;16.60;94038.47;5010046;28;20077;-49
2021/09/26 10:47:05;;;;;;;6.22;2.35;;;;;;;39.39;16.18;94034.00;5010272;28;20491;-49
2021/09/26 10:49:42;;;;;;;3.22;2.30;;;;;;;39.59;15.12;94036.09;5010469;28;20029;-49
2021/09/26 10:52:28;;;;;;;4.93;2.40;;;;;;;39.30;16.30;94035.50;5009932;28;20021;-53
2021/09/26 10:54:55;;;;;;;14.50;3.50;;;;;;;39.65;16.08;94028.09;5009831;28;20095;-50
2021/09/26 10:57:25;;;;;;;2.53;2.33;;;;;;;39.67;15.56;93996.28;5009966;28;20112;-48
2021/09/26 10:59:56;;;;;;;5.53;2.05;;;;;;;40.60;15.00;94013.56;5010306;28;20029;-48
2021/09/26 11:02:22;;;;;;;8.10;2.28;;;;;;;40.87;14.37;94022.69;5009659;28;20085;-49
2021/09/26 11:04:49;;;;;;;4.10;2.10;;;;;;;40.75;14.30;94022.81;5009702;28;20117;-48
2021/09/26 11:07:19;;;;;;;1.80;1.70;;;;;;;40.24;15.12;94013.91;5009495;28;20049;-50
2021/09/26 11:09:52;;;;;;;9.02;2.00;;;;;;;39.56;15.64;94020.94;5008924;28;20022;-50
2021/09/26 11:12:43;;;;;;;2.65;1.80;;;;;;;39.15;15.83;94005.25;5006361;28;20036;-49
2021/09/26 11:15:09;;;;;;;2.15;1.92;;;;;;;39.02;16.23;94000.94;5007637;28;20038;-51
2021/09/26 11:17:45;;;;;;;2.28;1.90;;;;;;;39.03;16.08;94003.09;5007708;28;20021;-47
2021/09/26 11:20:12;;;;;;;4.68;1.92;;;;;;;38.27;16.83;93997.56;5008960;28;20030;-51
2021/09/26 11:22:39;;;;;;;4.93;3.03;;;;;;;38.55;17.31;94000.41;5010860;28;20084;-49
2021/09/26 11:25:05;;;;;;;9.30;3.63;;;;;;;38.89;16.67;94008.22;5012397;28;20036;-47
2021/09/26 11:27:33;;;;;;;5.72;3.22;;;;;;;38.66;16.78;94001.81;5012263;28;20033;-50
2021/09/26 11:30:01;;;;;;;;;;;;;;;38.31;17.02;93997.56;5012730;28;20038;-52
2021/09/26 11:32:27;;;;;;;;;;;;;;;38.10;17.30;93996.13;5012674;28;20470;-51
2021/09/26 11:34:58;;;;;;;2.15;1.85;;;;;;;38.29;18.20;93986.72;5012521;28;19917;-50
2021/09/26 11:37:35;;;;;;;3.78;3.42;;;;;;;38.29;17.19;93983.16;5010077;28;20029;-50